Time;durP1;ratioP1;P1;durP2;ratioP2;P2;SDS_P1;SDS_P2;PMS_P1;PMS_P2;Temp;Humidity;BMP_temperature;BMP_pressure;BME280_temperature;BME280_humidity;BME280_pressure;Samples;Min_cycle;Max_cycle;Signal;HPM_P1;HPM_P2
2024/01/15 00:00:53;;;;;;;10.35;4.70;;;;;;;;;;5112834;28;20028;-70
2024/01/15 00:03:58;;;;;;;7.32;3.47;;;;;;;;;;5113966;28;20036;-70
2024/01/15 00:07:02;;;;;;;5.93;2.92;;;;;;;;;;5113826;28;20036;-70
2024/01/15 00:10:06;;;;;;;4.57;2.70;;;;;;;;;;5114031;28;20478;-71
2024/01/15 00:13:10;;;;;;;6.43;2.80;;;;;;;;;;5114028;28;20036;-71
2024/01/15 00:16:15;;;;;;;4.85;2.63;;;;;;;;;;5114043;28;20036;-71
2024/01/15 00:19:19;;;;;;;5.20;2.30;;;;;;;;;;5113450;28;20043;-71
2024/01/15 00:22:26;;;;;;;6.28;2.70;;;11.20;99.90;;;;;;5113953;28;20036;-71
2024/01/15 00:25:30;;;;;;;5.78;2.78;;;;;;;;;;5113983;28;20042;-71
2024/01/15 00:28:35;;;;;;;7.75;2.67;;;;;;;;;;5113526;28;20040;-71
2024/01/15 00:31:39;;;;;;;6.82;3.17;;;;;;;;;;5113892;28;20360;-70
2024/01/15 00:34:43;;;;;;;8.32;3.40;;;;;;;;;;5113694;28;20044;-71
2024/01/15 00:37:48;;;;;;;10.07;4.90;;;;;;;;;;5113385;28;20032;-71
2024/01/15 00:40:52;;;;;;;7.70;3.40;;;;;;;;;;5113471;28;20044;-70
2024/01/15 00:43:56;;;;;;;5.47;3.10;;;;;;;;;;5112975;28;20028;-71
2024/01/15 00:47:01;;;;;;;8.18;3.10;;;11.50;99.90;;;;;;5112663;28;20040;-70
2024/01/15 00:50:06;;;;;;;9.38;3.20;;;11.40;99.90;;;;;;5113176;28;20051;-70
2024/01/15 00:53:09;;;;;;;6.65;3.35;;;11.20;99.90;;;;;;5113494;28;20387;-71
2024/01/15 00:56:13;;;;;;;7.40;3.50;;;11.50;99.90;;;;;;5113652;28;20050;-70
2024/01/15 00:59:17;;;;;;;7.68;4.30;;;;;;;;;;5113053;28;20647;-70
2024/01/15 01:02:21;;;;;;;10.95;5.05;;;11.40;99.90;;;;;;5113217;28;20035;-70
2024/01/15 01:05:25;;;;;;;10.32;4.70;;;11.00;99.90;;;;;;5113054;28;20398;-70
2024/01/15 01:08:29;;;;;;;8.55;4.43;;;10.80;99.90;;;;;;5112865;28;20058;-69
2024/01/15 01:11:33;;;;;;;10.80;4.65;;;10.50;99.90;;;;;;5112687;28;20035;-69
2024/01/15 01:14:37;;;;;;;7.07;4.43;;;11.10;99.90;;;;;;5113058;28;20062;-70
2024/01/15 01:17:41;;;;;;;8.75;5.60;;;10.90;99.90;;;;;;5113015;28;20038;-70
2024/01/15 01:20:45;;;;;;;8.70;5.00;;;10.80;99.90;;;;;;5113019;28;20055;-70
2024/01/15 01:23:49;;;;;;;9.70;5.60;;;12.40;99.90;;;;;;5112693;28;20034;-69
2024/01/15 01:26:53;;;;;;;8.52;6.07;;;10.50;99.90;;;;;;5112887;28;20046;-69
2024/01/15 01:29:57;;;;;;;9.68;6.88;;;13.40;99.90;;;;;;5112816;28;20038;-69
2024/01/15 01:33:01;;;;;;;10.05;6.88;;;10.50;99.90;;;;;;5112521;28;20411;-69
2024/01/15 01:36:08;;;;;;;15.82;8.57;;;9.30;99.90;;;;;;5112541;28;20042;-72
2024/01/15 01:39:13;;;;;;;12.82;8.15;;;12.30;99.90;;;;;;5112415;28;20043;-71
2024/01/15 01:42:16;;;;;;;12.23;9.23;;;10.90;99.90;;;;;;5112443;28;20522;-71
2024/01/15 01:45:21;;;;;;;17.88;10.48;;;10.30;99.90;;;;;;5112538;28;20050;-71
2024/01/15 01:48:25;;;;;;;17.52;11.02;;;10.50;99.90;;;;;;5112102;28;20047;-71
2024/01/15 01:51:29;;;;;;;16.40;10.00;;;10.40;99.90;;;;;;5112390;28;20039;-70
2024/01/15 01:54:35;;;;;;;14.48;9.65;;;9.70;99.90;;;;;;5112093;28;20038;-71
2024/01/15 01:57:39;;;;;;;11.80;8.05;;;13.00;99.90;;;;;;5111994;28;20423;-71
2024/01/15 02:00:43;;;;;;;15.55;9.13;;;13.50;99.90;;;;;;5112010;28;20054;-71
2024/01/15 02:03:48;;;;;;;14.35;10.73;;;12.00;99.90;;;;;;5111392;28;20395;-71
2024/01/15 02:06:52;;;;;;;18.05;11.20;;;12.50;99.90;;;;;;5112110;28;20047;-71
2024/01/15 02:09:55;;;;;;;14.45;10.55;;;10.30;99.90;;;;;;5111136;28;20074;-70
2024/01/15 02:13:00;;;;;;;15.38;10.70;;;;;;;;;;5111833;28;20102;-71
2024/01/15 02:16:04;;;;;;;17.25;11.50;;;12.40;99.90;;;;;;5111828;28;20050;-71
2024/01/15 02:19:15;;;;;;;16.08;11.73;;;9.80;99.90;;;;;;5111460;28;20407;-71
2024/01/15 02:22:20;;;;;;;17.80;12.00;;;10.50;99.90;;;;;;5111921;28;20071;-71
2024/01/15 02:25:24;;;;;;;20.98;12.80;;;10.40;99.90;;;;;;5111502;28;20383;-71
2024/01/15 02:28:28;;;;;;;14.77;11.40;;;10.20;99.90;;;;;;5111393;28;20054;-71
2024/01/15 02:31:32;;;;;;;14.00;10.23;;;9.80;99.90;;;;;;5111459;28;20042;-71
2024/01/15 02:34:35;;;;;;;12.95;9.70;;;9.80;99.90;;;;;;5111417;28;20042;-71
2024/01/15 02:37:39;;;;;;;16.88;10.40;;;10.30;99.90;;;;;;5111322;28;20038;-71
2024/01/15 02:40:45;;;;;;;15.38;11.70;;;9.70;99.90;;;;;;5111332;28;20117;-71
2024/01/15 02:43:49;;;;;;;15.80;10.82;;;12.80;99.90;;;;;;5110840;28;20047;-71
2024/01/15 02:46:53;;;;;;;12.00;9.48;;;12.90;99.90;;;;;;5111525;28;20395;-70
2024/01/15 02:49:57;;;;;;;15.13;9.68;;;12.10;99.90;;;;;;5111166;28;20047;-70
2024/01/15 02:53:00;;;;;;;17.33;10.32;;;9.70;99.90;;;;;;5111063;28;20042;-71
2024/01/15 02:56:04;;;;;;;16.75;10.52;;;12.30;99.90;;;;;;5111403;28;20042;-70
2024/01/15 02:59:08;;;;;;;19.05;10.70;;;;;;;;;;5098788;28;20509;-70
2024/01/15 03:02:12;;;;;;;16.20;10.90;;;10.30;99.90;;;;;;5111557;28;20666;-70
2024/01/15 03:05:16;;;;;;;13.23;10.65;;;9.90;99.90;;;;;;5111517;28;20062;-71
2024/01/15 03:08:22;;;;;;;12.48;10.30;;;10.60;99.90;;;;;;5111027;28;20082;-71
2024/01/15 03:11:26;;;;;;;11.88;7.82;;;10.60;99.90;;;;;;5111170;28;20043;-71
2024/01/15 03:14:30;;;;;;;9.95;7.82;;;10.10;99.90;;;;;;5111122;28;20395;-71
2024/01/15 03:17:34;;;;;;;12.30;8.20;;;10.10;99.90;;;;;;5111270;28;20042;-71
2024/01/15 03:20:38;;;;;;;9.15;5.07;;;10.40;99.90;;;;;;5110964;28;20046;-71
2024/01/15 03:23:42;;;;;;;7.22;4.18;;;10.30;99.90;;;;;;5110973;28;20050;-71
2024/01/15 03:26:46;;;;;;;5.57;3.35;;;10.40;99.90;;;;;;5111226;28;20043;-71
2024/01/15 03:29:50;;;;;;;6.40;4.47;;;10.50;99.90;;;;;;5111069;28;20058;-71
2024/01/15 03:32:54;;;;;;;6.55;4.10;;;10.70;99.90;;;;;;5111159;28;20043;-70
2024/01/15 03:35:59;;;;;;;8.32;4.50;;;10.70;99.90;;;;;;5114031;28;20039;-71
2024/01/15 03:39:03;;;;;;;6.57;5.05;;;;;;;;;;5114422;28;20406;-70
2024/01/15 03:42:07;;;;;;;6.72;5.15;;;10.20;99.90;;;;;;5114690;28;20039;-71
2024/01/15 03:45:11;;;;;;;6.38;3.88;;;10.80;99.90;;;;;;5114732;28;20059;-71
2024/01/15 03:48:15;;;;;;;7.05;4.25;;;10.20;99.90;;;;;;5114394;28;20063;-70
2024/01/15 03:51:19;;;;;;;7.45;4.47;;;10.30;99.90;;;;;;5114481;28;20042;-72
2024/01/15 03:54:23;;;;;;;3.65;2.40;;;10.20;99.90;;;;;;5102072;28;20533;-71
2024/01/15 03:57:27;;;;;;;4.18;2.60;;;10.20;99.90;;;;;;5113689;28;20062;-71
2024/01/15 04:00:31;;;;;;;2.42;2.00;;;10.40;99.90;;;;;;5114339;28;20039;-71
2024/01/15 04:03:35;;;;;;;4.05;2.90;;;10.40;99.90;;;;;;5114285;28;20046;-70
2024/01/15 04:06:39;;;;;;;5.07;2.80;;;10.70;99.90;;;;;;5114345;28;20034;-71
2024/01/15 04:09:43;;;;;;;4.05;2.90;;;10.60;99.90;;;;;;5114558;28;20058;-71
2024/01/15 04:12:47;;;;;;;3.15;2.20;;;10.90;99.90;;;;;;5113486;28;20395;-71
2024/01/15 04:15:51;;;;;;;2.40;1.50;;;10.80;99.90;;;;;;5114427;28;20058;-71
2024/01/15 04:18:55;;;;;;;2.40;1.92;;;10.90;99.90;;;;;;5113651;28;20047;-71
2024/01/15 04:21:58;;;;;;;3.47;2.00;;;10.70;99.90;;;;;;5113411;28;20499;-71
2024/01/15 04:25:03;;;;;;;3.28;1.20;;;10.40;99.90;;;;;;5114003;28;20513;-72
2024/01/15 04:28:08;;;;;;;1.70;1.10;;;10.40;99.90;;;;;;5113859;28;20047;-72
2024/01/15 04:31:22;;;;;;;2.55;1.10;;;10.50;99.90;;;;;;5113833;28;20042;-71
2024/01/15 04:34:26;;;;;;;2.17;1.20;;;10.90;99.90;;;;;;5113638;28;20051;-72
2024/01/15 04:37:30;;;;;;;2.08;1.13;;;11.00;99.90;;;;;;5113840;28;20039;-71
2024/01/15 04:40:34;;;;;;;5.78;1.30;;;10.70;99.90;;;;;;5113642;28;20097;-71
2024/01/15 04:43:38;;;;;;;3.28;1.10;;;;;;;;;;5113766;28;20046;-71
2024/01/15 04:46:43;;;;;;;1.92;1.15;;;;;;;;;;5100938;28;20059;-71
2024/01/15 04:49:49;;;;;;;2.58;1.15;;;;;;;;;;5112482;28;20051;-71
2024/01/15 04:52:53;;;;;;;1.70;1.20;;;;;;;;;;5113437;28;20031;-71
2024/01/15 04:55:57;;;;;;;2.33;0.98;;;;;;;;;;5112573;28;20039;-71
2024/01/15 04:59:01;;;;;;;3.33;1.63;;;;;;;;;;5113235;28;20031;-71
2024/01/15 05:02:05;;;;;;;4.00;1.38;;;;;;;;;;5113070;28;20032;-71
2024/01/15 05:05:10;;;;;;;3.30;1.30;;;;;;;;;;5113136;28;20031;-71
2024/01/15 05:08:14;;;;;;;2.63;1.60;;;;;;;;;;5113036;28;20036;-71
2024/01/15 05:11:19;;;;;;;4.15;1.67;;;;;;;;;;5113172;28;20044;-71
2024/01/15 05:14:23;;;;;;;4.40;2.55;;;11.30;99.90;;;;;;5112868;28;20036;-71
2024/01/15 05:17:27;;;;;;;2.78;2.00;;;;;;;;;;5112900;28;20047;-71
2024/01/15 05:20:31;;;;;;;2.30;1.70;;;;;;;;;;5112616;28;20048;-71
2024/01/15 05:23:36;;;;;;;2.00;1.50;;;;;;;;;;5112983;28;20036;-71
2024/01/15 05:26:40;;;;;;;2.22;1.50;;;;;;;;;;5112696;28;20035;-71
2024/01/15 05:29:45;;;;;;;4.15;1.83;;;;;;;;;;5112556;28;20487;-71
2024/01/15 05:32:49;;;;;;;3.33;2.00;;;;;;;;;;5112661;28;20040;-71
2024/01/15 05:35:53;;;;;;;5.25;2.03;;;;;;;;;;5112347;28;20028;-71
2024/01/15 05:38:58;;;;;;;3.60;2.08;;;;;;;;;;5112464;28;20040;-71
2024/01/15 05:42:02;;;;;;;3.53;1.83;;;;;;;;;;5112475;28;20043;-71
2024/01/15 05:45:07;;;;;;;4.13;2.17;;;;;;;;;;5112264;28;20031;-71
2024/01/15 05:48:12;;;;;;;4.10;2.15;;;11.70;99.90;;;;;;5111968;28;20616;-71
2024/01/15 05:51:16;;;;;;;3.17;2.22;;;;;;;;;;5112175;28;20034;-71
2024/01/15 05:54:21;;;;;;;3.50;2.90;;;;;;;;;;5112119;28;20476;-71
2024/01/15 05:57:25;;;;;;;3.83;2.97;;;;;;;;;;5111249;28;20039;-71
2024/01/15 06:00:29;;;;;;;3.80;2.78;;;;;;;;;;5111786;28;20479;-71
2024/01/15 06:03:33;;;;;;;3.65;3.33;;;10.80;99.90;;;;;;5112183;28;20035;-71
2024/01/15 06:06:37;;;;;;;8.30;4.30;;;;;;;;;;5111193;28;20047;-71
2024/01/15 06:09:41;;;;;;;5.60;4.10;;;11.20;99.90;;;;;;5110919;28;20043;-71
2024/01/15 06:12:45;;;;;;;6.05;5.20;;;11.30;99.90;;;;;;5112017;28;20047;-71
2024/01/15 06:15:49;;;;;;;6.72;5.30;;;;;;;;;;5111940;28;20395;-71
2024/01/15 06:18:53;;;;;;;7.82;6.00;;;11.30;99.90;;;;;;5110750;28;20039;-71
2024/01/15 06:21:57;;;;;;;8.60;7.07;;;;;;;;;;5111647;28;20047;-71
2024/01/15 06:25:02;;;;;;;7.82;6.32;;;11.10;99.90;;;;;;5110688;28;20031;-71
2024/01/15 06:28:07;;;;;;;15.50;6.97;;;11.40;99.90;;;;;;5111576;28;20047;-71
2024/01/15 06:31:10;;;;;;;9.15;7.20;;;9.00;99.90;;;;;;5111639;28;20506;-71
2024/01/15 06:34:15;;;;;;;9.95;7.32;;;11.00;99.90;;;;;;5111240;28;20028;-71
2024/01/15 06:37:20;;;;;;;10.52;7.25;;;10.30;99.90;;;;;;5111214;28;20038;-71
2024/01/15 06:40:24;;;;;;;10.20;8.00;;;11.00;99.90;;;;;;5111563;28;20502;-71
2024/01/15 06:43:28;;;;;;;11.05;7.72;;;;;;;;;;5110530;28;20042;-67
2024/01/15 06:46:32;;;;;;;8.75;6.97;;;;;;;;;;5110950;28;20036;-67
2024/01/15 06:49:36;;;;;;;9.15;6.72;;;;;;;;;;5111041;28;20071;-67
2024/01/15 06:52:40;;;;;;;8.77;7.32;;;;;;;;;;5111131;28;20035;-67
2024/01/15 06:55:45;;;;;;;11.57;8.57;;;;;;;;;;5111430;28;20043;-69
2024/01/15 06:58:49;;;;;;;15.00;9.55;;;;;;;;;;5110847;28;20063;-69
2024/01/15 07:01:55;;;;;;;11.77;9.27;;;;;;;;;;5110240;28;20034;-67
2024/01/15 07:04:59;;;;;;;16.17;10.55;;;;;;;;;;5111279;28;20507;-67
2024/01/15 07:08:03;;;;;;;12.90;9.32;;;;;;;;;;5110808;28;20050;-67
2024/01/15 07:11:08;;;;;;;17.15;10.40;;;;;;;;;;5114303;28;20046;-66
2024/01/15 07:14:12;;;;;;;13.30;9.35;;;;;;;;;;5115081;28;20039;-67
2024/01/15 07:17:17;;;;;;;16.88;10.18;;;;;;;;;;5115039;28;20135;-68
2024/01/15 07:20:21;;;;;;;14.60;9.75;;;;;;;;;;5114598;28;20047;-70
2024/01/15 07:23:25;;;;;;;13.95;9.75;;;;;;;;;;5114969;28;20523;-68
2024/01/15 07:26:31;;;;;;;15.90;9.45;;;11.30;99.90;;;;;;5114846;28;20475;-74
2024/01/15 07:29:38;;;;;;;19.35;12.25;;;;;;;;;;5114468;28;20134;-70
2024/01/15 07:32:42;;;;;;;12.80;10.10;;;;;;;;;;5114735;28;20047;-68
2024/01/15 07:35:47;;;;;;;13.20;10.40;;;;;;;;;;5114572;28;20050;-69
2024/01/15 07:38:51;;;;;;;17.10;11.07;;;;;;;;;;5114457;28;20035;-70
2024/01/15 07:41:55;;;;;;;18.92;11.50;;;;;;;;;;5114749;28;20053;-66
2024/01/15 07:45:00;;;;;;;17.50;11.48;;;;;;;;;;5114736;28;20438;-66
2024/01/15 07:48:05;;;;;;;18.63;11.93;;;;;;;;;;5114409;28;20046;-66
2024/01/15 07:51:09;;;;;;;19.58;13.18;;;;;;;;;;5114397;28;20097;-67
2024/01/15 07:54:13;;;;;;;17.50;13.25;;;12.00;99.90;;;;;;5114174;28;20502;-65
2024/01/15 07:57:18;;;;;;;20.80;14.23;;;;;;;;;;5114236;28;20042;-69
2024/01/15 08:00:22;;;;;;;17.83;12.93;;;;;;;;;;5113051;28;20043;-68
2024/01/15 08:03:26;;;;;;;13.43;11.73;;;;;;;;;;5114347;28;20050;-67
2024/01/15 08:06:30;;;;;;;13.68;11.18;;;;;;;;;;5114167;28;20050;-68
2024/01/15 08:09:36;;;;;;;18.77;12.02;;;;;;;;;;5113113;28;20050;-66
2024/01/15 08:12:40;;;;;;;15.43;12.30;;;;;;;;;;5113928;28;20435;-66
2024/01/15 08:15:44;;;;;;;20.80;14.30;;;;;;;;;;5112862;28;20043;-67
2024/01/15 08:18:49;;;;;;;20.33;14.82;;;;;;;;;;5113611;28;20051;-67
2024/01/15 08:21:53;;;;;;;25.65;17.63;;;;;;;;;;5113170;28;20039;-68
2024/01/15 08:24:57;;;;;;;27.77;17.75;;;;;;;;;;5112841;28;20050;-67
2024/01/15 08:28:01;;;;;;;24.63;17.30;;;;;;;;;;5113673;28;20034;-68
2024/01/15 08:31:06;;;;;;;19.38;14.88;;;;;;;;;;5113702;28;20051;-67
2024/01/15 08:34:10;;;;;;;21.33;16.25;;;;;;;;;;5113759;28;20043;-66
2024/01/15 08:37:15;;;;;;;23.58;17.98;;;;;;;;;;5113291;28;20047;-66
2024/01/15 08:40:19;;;;;;;23.73;18.35;;;;;;;;;;5112837;28;20101;-72
2024/01/15 08:43:23;;;;;;;22.80;16.75;;;;;;;;;;5113158;28;20047;-70
2024/01/15 08:46:28;;;;;;;21.75;18.63;;;;;;;;;;5113562;28;20502;-68
2024/01/15 08:49:33;;;;;;;25.23;19.30;;;;;;;;;;5113095;28;20602;-71
2024/01/15 08:52:37;;;;;;;28.17;20.55;;;;;;;;;;5113559;28;20042;-71
2024/01/15 08:55:44;;;;;;;32.80;25.88;;;;;;;;;;5113104;28;20498;-72
2024/01/15 08:58:48;;;;;;;30.63;23.13;;;;;;;;;;5113066;28;20050;-73
2024/01/15 09:01:53;;;;;;;31.80;24.15;;;12.70;99.90;;;;;;5113203;28;20386;-72
2024/01/15 09:04:57;;;;;;;27.60;21.38;;;;;;;;;;5112969;28;20042;-71
2024/01/15 09:08:01;;;;;;;34.97;25.25;;;;;;;;;;5112934;28;20105;-70
2024/01/15 09:11:06;;;;;;;27.23;20.25;;;;;;;;;;5113162;28;20518;-73
2024/01/15 09:14:10;;;;;;;24.95;20.10;;;;;;;;;;5113511;28;20042;-72
2024/01/15 09:17:14;;;;;;;29.35;21.00;;;;;;;;;;5112200;28;20572;-71
2024/01/15 09:20:18;;;;;;;31.45;23.42;;;;;;;;;;5112321;28;20047;-71
2024/01/15 09:23:22;;;;;;;24.65;19.63;;;;;;;;;;5112734;28;20502;-71
2024/01/15 09:26:27;;;;;;;22.90;18.48;;;;;;;;;;5112846;28;20387;-71
2024/01/15 09:29:31;;;;;;;32.03;23.05;;;;;;;;;;5112532;28;20058;-69
2024/01/15 09:32:35;;;;;;;29.23;22.45;;;;;;;;;;5111796;28;20407;-73
2024/01/15 09:35:40;;;;;;;24.75;20.13;;;;;;;;;;5112434;28;20058;-72
2024/01/15 09:38:44;;;;;;;26.27;18.95;;;;;;;;;;5111906;28;20051;-71
2024/01/15 09:41:50;;;;;;;35.35;24.83;;;13.10;99.90;;;;;;5111925;28;20050;-72
2024/01/15 09:44:55;;;;;;;31.67;22.63;;;11.70;99.90;;;;;;5112136;28;20059;-70
2024/01/15 09:47:59;;;;;;;29.77;21.25;;;;;;;;;;5112164;28;20042;-72
2024/01/15 09:51:05;;;;;;;34.20;26.05;;;13.20;99.90;;;;;;5112429;28;20058;-72
2024/01/15 09:54:13;;;;;;;37.17;26.05;;;;;;;;;;5112085;28;20046;-74
2024/01/15 09:57:17;;;;;;;29.05;23.42;;;;;;;;;;5099353;28;20039;-69
2024/01/15 10:00:23;;;;;;;27.90;20.73;;;13.20;99.90;;;;;;5111967;28;20043;-71
2024/01/15 10:03:27;;;;;;;30.73;22.02;;;;;;;;;;5112073;28;20494;-69
2024/01/15 10:06:32;;;;;;;38.22;26.33;;;13.20;99.90;;;;;;5111759;28;20391;-71
2024/01/15 10:09:36;;;;;;;43.40;29.90;;;;;;;;;;5111594;28;20055;-72
2024/01/15 10:12:41;;;;;;;45.45;29.80;;;;;;;;;;5112251;28;20050;-70
2024/01/15 10:15:47;;;;;;;40.95;27.95;;;13.20;99.90;;;;;;5111891;28;20505;-73
2024/01/15 10:18:52;;;;;;;43.85;28.88;;;;;;;;;;5111108;28;20055;-70
2024/01/15 10:21:56;;;;;;;53.50;29.55;;;;;;;;;;5110586;28;20403;-73
2024/01/15 10:25:00;;;;;;;37.67;25.50;;;;;;;;;;5111706;28;20038;-75
2024/01/15 10:28:05;;;;;;;32.03;21.73;;;;;;;;;;5110554;28;20048;-73
2024/01/15 10:31:10;;;;;;;32.90;22.05;;;;;;;;;;5109820;28;20514;-72
2024/01/15 10:34:15;;;;;;;30.27;22.25;;;;;;;;;;5109898;28;20158;-73
2024/01/15 10:37:19;;;;;;;25.83;19.48;;;;;;;;;;5110422;28;20588;-70
2024/01/15 10:40:23;;;;;;;24.35;19.10;;;13.50;99.90;;;;;;5110653;28;20062;-70
2024/01/15 10:43:27;;;;;;;23.40;17.05;;;;;;;;;;5110829;28;20051;-71
2024/01/15 10:46:33;;;;;;;26.42;13.60;;;13.20;99.90;;;;;;5111491;28;20051;-69
2024/01/15 10:49:38;;;;;;;21.40;9.98;;;;;;;;;;5111140;28;20054;-71
2024/01/15 10:52:46;;;;;;;18.52;7.55;;;;;;;;;;5110484;28;20042;-70
2024/01/15 10:55:51;;;;;;;11.35;6.65;;;13.50;99.90;;;;;;5108880;28;20047;-72
2024/01/15 10:58:56;;;;;;;11.98;5.15;;;13.40;99.90;;;;;;5110734;28;20050;-71
2024/01/15 11:02:01;;;;;;;14.80;6.13;;;;;;;;;;5111353;28;20039;-72
2024/01/15 11:05:04;;;;;;;11.48;6.60;;;;;;;;;;5111420;28;20040;-69
2024/01/15 11:08:09;;;;;;;12.00;6.85;;;;;;;;;;5111089;28;20142;-73
2024/01/15 11:11:13;;;;;;;10.90;6.25;;;;;;;;;;5110164;28;20051;-71
2024/01/15 11:14:40;;;;;;;13.27;6.20;;;14.70;99.90;;;;;;5111260;28;20511;-71
2024/01/15 11:18:03;;;;;;;12.75;6.50;;;13.30;99.90;;;;;;5111118;28;20050;-71
2024/01/15 11:21:16;;;;;;;29.77;9.95;;;13.30;99.90;;;;;;5110880;28;20043;-72
2024/01/15 11:24:40;;;;;;;15.35;9.82;;;13.00;99.90;;;;;;5110040;28;20038;-71
2024/01/15 11:27:52;;;;;;;14.80;8.35;;;13.40;99.90;;;;;;5110828;28;20043;-71
2024/01/15 11:30:56;;;;;;;15.00;7.70;;;;;;;;;;5110941;28;20043;-71
2024/01/15 11:34:00;;;;;;;12.95;6.72;;;;;;;;;;5098205;28;20047;-70
2024/01/15 11:37:04;;;;;;;16.92;6.90;;;;;;;;;;5110755;28;20035;-71
2024/01/15 11:40:11;;;;;;;13.35;7.10;;;;;;;;;;5110230;28;20519;-72
2024/01/15 11:43:20;;;;;;;9.48;6.00;;;;;;;;;;5110869;28;20043;-72
2024/01/15 11:46:33;;;;;;;11.27;5.15;;;12.00;99.90;;;;;;5110669;28;20032;-70
2024/01/15 11:50:05;;;;;;;15.98;6.65;;;13.40;99.90;;;;;;5110779;28;20062;-71
2024/01/15 11:53:21;;;;;;;18.45;7.70;;;13.50;99.90;;;;;;5111006;28;20042;-74
2024/01/15 11:56:25;;;;;;;12.77;6.20;;;;;;;;;;5111298;28;20046;-70
2024/01/15 11:59:29;;;;;;;15.05;6.55;;;;;;;;;;5113631;28;20569;-73
2024/01/15 12:02:34;;;;;;;21.38;9.00;;;;;;;;;;5113511;28;20043;-69
2024/01/15 12:05:39;;;;;;;21.25;6.13;;;;;;;;;;5114263;28;20039;-68
2024/01/15 12:08:43;;;;;;;14.13;5.72;;;;;;;;;;5113818;28;20041;-68
2024/01/15 12:11:54;;;;;;;14.23;5.43;;;13.70;99.90;;;;;;5114204;28;20524;-69
2024/01/15 12:14:59;;;;;;;14.55;5.05;;;;;;;;;;5114185;28;20136;-69
2024/01/15 12:18:03;;;;;;;18.88;5.60;;;;;;;;;;5113831;28;20234;-69
2024/01/15 12:21:09;;;;;;;12.23;4.47;;;13.30;99.90;;;;;;5114096;28;20067;-69
2024/01/15 12:24:14;;;;;;;14.25;4.57;;;;;;;;;;5113036;28;20054;-69
2024/01/15 12:27:19;;;;;;;17.15;4.88;;;;;;;;;;5113108;28;20039;-70
2024/01/15 12:30:23;;;;;;;14.20;4.85;;;;;;;;;;5113538;28;20058;-70
2024/01/15 12:33:28;;;;;;;17.25;4.28;;;;;;;;;;5113700;28;20390;-70
2024/01/15 12:36:32;;;;;;;15.73;4.95;;;;;;;;;;5113745;28;20046;-70
2024/01/15 12:39:36;;;;;;;14.65;4.43;;;;;;;;;;5112511;28;20040;-70
2024/01/15 12:42:41;;;;;;;8.38;3.95;;;;;;;;;;5113809;28;20032;-70
2024/01/15 12:45:46;;;;;;;11.88;4.47;;;13.40;99.90;;;;;;5112900;28;20040;-70
2024/01/15 12:48:50;;;;;;;12.85;3.60;;;;;;;;;;5113310;28;20050;-71
2024/01/15 12:51:57;;;;;;;21.55;5.43;;;12.90;99.90;;;;;;5113464;28;20525;-68
2024/01/15 12:55:01;;;;;;;15.15;4.45;;;;;;;;;;5113189;28;20039;-69
2024/01/15 12:58:05;;;;;;;9.20;4.93;;;;;;;;;;5113393;28;20040;-71
2024/01/15 13:01:10;;;;;;;11.20;4.55;;;;;;;;;;5113477;28;20048;-69
2024/01/15 13:04:24;;;;;;;12.63;5.55;;;13.70;99.90;;;;;;5113247;28;20348;-69
2024/01/15 13:07:28;;;;;;;14.93;5.75;;;;;;;;;;5112380;28;20051;-68
2024/01/15 13:10:33;;;;;;;12.35;4.15;;;;;;;;;;5112694;28;20054;-71
2024/01/15 13:13:37;;;;;;;12.60;4.65;;;;;;;;;;5112785;28;20027;-70
2024/01/15 13:16:41;;;;;;;14.15;4.65;;;;;;;;;;5112856;28;20051;-70
2024/01/15 13:19:46;;;;;;;10.00;4.03;;;;;;;;;;5112550;28;20052;-70
2024/01/15 13:22:50;;;;;;;19.88;5.55;;;;;;;;;;5111824;28;20040;-70
2024/01/15 13:25:54;;;;;;;14.10;6.40;;;;;;;;;;5112784;28;20035;-70
2024/01/15 13:29:03;;;;;;;17.77;7.15;;;13.70;99.90;;;;;;5112756;28;20040;-69
2024/01/15 13:32:09;;;;;;;17.63;8.43;;;;;;;;;;5112430;28;20379;-70
2024/01/15 13:35:14;;;;;;;18.77;8.65;;;;;;;;;;5111973;28;20031;-70
2024/01/15 13:38:18;;;;;;;13.73;6.95;;;;;;;;;;5112383;28;20042;-71
2024/01/15 13:41:27;;;;;;;16.48;6.68;;;;;;;;;;5112444;28;20048;-70
2024/01/15 13:44:30;;;;;;;16.50;7.65;;;;;;;;;;5112364;28;20031;-70
2024/01/15 13:47:35;;;;;;;15.32;7.10;;;;;;;;;;5112196;28;20383;-70
2024/01/15 13:50:39;;;;;;;17.33;6.90;;;;;;;;;;5111217;28;20399;-70
2024/01/15 13:53:44;;;;;;;21.33;6.85;;;;;;;;;;5110987;28;20039;-70
2024/01/15 13:56:49;;;;;;;16.58;6.15;;;;;;;;;;5112245;28;20044;-69
2024/01/15 13:59:53;;;;;;;13.40;6.28;;;;;;;;;;5112228;28;20054;-70
2024/01/15 14:02:58;;;;;;;21.52;11.80;;;;;;;;;;5111284;28;20045;-70
2024/01/15 14:06:03;;;;;;;23.73;13.32;;;;;;;;;;5112119;28;20050;-71
2024/01/15 14:09:09;;;;;;;24.42;10.05;;;;;;;;;;5099380;28;20050;-70
2024/01/15 14:12:14;;;;;;;22.33;9.32;;;;;;;;;;5110929;28;20104;-71
2024/01/15 14:15:21;;;;;;;22.50;10.90;;;;;;;;;;5111644;28;20043;-71
2024/01/15 14:18:25;;;;;;;22.42;14.07;;;;;;;;;;5111318;28;20078;-70
2024/01/15 14:21:29;;;;;;;50.53;31.52;;;;;;;;;;5111720;28;20046;-71
2024/01/15 14:24:34;;;;;;;32.05;15.57;;;;;;;;;;5111816;28;20054;-71
2024/01/15 14:27:38;;;;;;;20.50;12.18;;;;;;;;;;5111704;28;20043;-72
2024/01/15 14:30:42;;;;;;;21.80;13.88;;;;;;;;;;5111371;28;20047;-72
2024/01/15 14:33:47;;;;;;;27.27;15.63;;;;;;;;;;5111469;28;20126;-71
2024/01/15 14:36:55;;;;;;;27.95;14.63;;;;;;;;;;5111436;28;20041;-71
2024/01/15 14:39:59;;;;;;;31.38;15.02;;;;;;;;;;5111591;28;20086;-71
2024/01/15 14:43:03;;;;;;;27.27;13.85;;;;;;;;;;5111702;28;20051;-72
2024/01/15 14:46:07;;;;;;;25.80;14.23;;;;;;;;;;5111513;28;20068;-73
2024/01/15 14:49:12;;;;;;;25.92;13.95;;;;;;;;;;5111154;28;20050;-78
2024/01/15 14:52:17;;;;;;;23.17;14.88;;;;;;;;;;5110782;28;20038;-75
2024/01/15 14:55:23;;;;;;;26.95;14.60;;;;;;;;;;5111595;28;20370;-73
2024/01/15 14:58:27;;;;;;;36.13;19.77;;;;;;;;;;5111620;28;20062;-72
2024/01/15 15:01:32;;;;;;;44.22;23.70;;;;;;;;;;5111082;28;20042;-78
2024/01/15 15:04:36;;;;;;;38.83;19.20;;;;;;;;;;5111313;28;20054;-79
2024/01/15 15:07:40;;;;;;;37.70;21.13;;;;;;;;;;5111388;28;20047;-79
2024/01/15 15:10:45;;;;;;;45.40;26.58;;;;;;;;;;5111185;28;20057;-79
2024/01/15 15:13:49;;;;;;;47.38;25.38;;;;;;;;;;5111205;28;20046;-77
2024/01/15 15:16:53;;;;;;;36.58;19.15;;;;;;;;;;5110814;28;20051;-78
2024/01/15 15:19:58;;;;;;;34.17;20.35;;;;;;;;;;5110704;28;20054;-76
2024/01/15 15:23:02;;;;;;;26.92;16.95;;;;;;;;;;5110800;28;20043;-72
2024/01/15 15:26:07;;;;;;;26.10;14.73;;;;;;;;;;5109778;28;20046;-74
2024/01/15 15:29:11;;;;;;;22.65;13.82;;;;;;;;;;5110601;28;20054;-72
2024/01/15 15:32:15;;;;;;;27.83;12.57;;;;;;;;;;5114486;28;20498;-71
2024/01/15 15:35:19;;;;;;;24.38;13.07;;;;;;;;;;5113685;28;20035;-71
2024/01/15 15:38:24;;;;;;;26.85;13.45;;;;;;;;;;5114517;28;20051;-74
2024/01/15 15:41:28;;;;;;;21.58;14.90;;;;;;;;;;5114361;28;20047;-71
2024/01/15 15:44:32;;;;;;;21.27;14.85;;;;;;;;;;5114314;28;20046;-74
2024/01/15 15:47:36;;;;;;;27.92;16.77;;;;;;;;;;5114548;28;20599;-73
2024/01/15 15:50:41;;;;;;;36.53;20.40;;;;;;;;;;5113421;28;20074;-74
2024/01/15 15:53:45;;;;;;;26.33;18.33;;;;;;;;;;5113699;28;20047;-72
2024/01/15 15:56:52;;;;;;;29.30;18.50;;;;;;;;;;5112789;28;20042;-76
2024/01/15 15:59:57;;;;;;;29.88;16.67;;;;;;;;;;5112595;28;20070;-72
2024/01/15 16:03:01;;;;;;;32.30;19.45;;;;;;;;;;5112474;28;20057;-76
2024/01/15 16:06:05;;;;;;;45.97;27.63;;;;;;;;;;5114066;28;20046;-72
2024/01/15 16:09:13;;;;;;;45.15;28.70;;;;;;;;;;5113916;28;20038;-73
2024/01/15 16:12:17;;;;;;;40.35;26.42;;;;;;;;;;5101374;28;20146;-71
2024/01/15 16:15:22;;;;;;;37.72;24.42;;;14.50;99.90;;;;;;5114067;28;20106;-72
2024/01/15 16:18:27;;;;;;;54.08;34.17;;;;;;;;;;5113346;28;20066;-72
2024/01/15 16:21:31;;;;;;;48.65;30.13;;;;;;;;;;5112697;28;20399;-75
2024/01/15 16:24:35;;;;;;;43.65;29.58;;;;;;;;;;5113078;28;20038;-73
2024/01/15 16:27:41;;;;;;;36.92;25.55;;;;;;;;;;5112728;28;20042;-74
2024/01/15 16:30:45;;;;;;;35.58;24.80;;;;;;;;;;5111096;28;20054;-73
2024/01/15 16:33:49;;;;;;;47.45;31.70;;;;;;;;;;5112589;28;20375;-73
2024/01/15 16:36:53;;;;;;;53.00;32.67;;;;;;;;;;5112660;28;20505;-72
2024/01/15 16:39:57;;;;;;;59.65;34.08;;;;;;;;;;5113706;28;20415;-75
2024/01/15 16:43:02;;;;;;;46.55;29.92;;;;;;;;;;5111787;28;20050;-73
2024/01/15 16:46:06;;;;;;;53.33;29.35;;;;;;;;;;5111362;28;20043;-75
2024/01/15 16:49:11;;;;;;;44.95;29.20;;;;;;;;;;5112639;28;20399;-70
2024/01/15 16:52:15;;;;;;;44.15;30.98;;;;;;;;;;5100161;28;20046;-72
2024/01/15 16:55:19;;;;;;;47.00;32.00;;;;;;;;;;5112734;28;20501;-72
2024/01/15 16:58:24;;;;;;;49.17;32.97;;;;;;;;;;5113203;28;20395;-73
2024/01/15 17:01:28;;;;;;;47.22;32.00;;;;;;;;;;5113234;28;20494;-73
2024/01/15 17:04:32;;;;;;;43.25;27.30;;;;;;;;;;5112987;28;20046;-73
2024/01/15 17:07:37;;;;;;;44.00;30.17;;;;;;;;;;5113306;28;20435;-73
2024/01/15 17:10:41;;;;;;;47.83;31.70;;;;;;;;;;5100016;28;20505;-72
2024/01/15 17:13:45;;;;;;;51.92;33.85;;;;;;;;;;5112722;28;20047;-72
2024/01/15 17:16:50;;;;;;;46.20;30.40;;;;;;;;;;5111712;28;20043;-71